Penfield, Pennsylvania
Current Conditions -  °F | °C
As of 12:54 PM on Saturday 25 Oct 2014 (Local Time) from KFIG Reporting Station
Overcast Overcast  
Wind Chill: 61°   Ceiling: 9500
Heat Index: 61°   Visibility: 10mi
Dew Point: 48°   Wind: 16mph
Humidity: 62%   Direction: 250°WSW
Pressure: 29.82"   Gusts: 32mph
Location:  41.21°N, 78.58°W
Report Text: KFIG 251654Z AUTO 25014G28KT 10SM FEW030 OVC095 16/09 A2982 RMK AO2 PK WND 23028/1651 SLP099 T01610089
Loading
Personal Weather Stations






























Interactive Weather Map New forecast layout! Learn more

10-Day Weather Forecast

Advertisements
Track Severe Weather on mobile